Time;durP1;ratioP1;P1;durP2;ratioP2;P2;SDS_P1;SDS_P2;PMS_P1;PMS_P2;Temp;Humidity;BMP_temperature;BMP_pressure;BME280_temperature;BME280_humidity;BME280_pressure;Samples;Min_cycle;Max_cycle;Signal;HPM_P1;HPM_P2
2024/03/07 00:00:15;;;;;;;3.50;1.90;;;;;;;3.32;100.00;92485.47;4762786;30;20122;-74
2024/03/07 00:02:46;;;;;;;4.70;2.10;;;;;;;3.30;100.00;92484.94;4761277;30;20385;-73
2024/03/07 00:05:14;;;;;;;4.30;2.10;;;;;;;3.28;100.00;92486.97;4765966;30;20043;-73
2024/03/07 00:07:40;;;;;;;4.18;2.00;;;;;;;3.29;100.00;92480.81;4761011;30;20397;-74
2024/03/07 00:10:07;;;;;;;3.60;2.22;;;;;;;3.44;100.00;92483.53;4757633;30;20052;-74
2024/03/07 00:12:35;;;;;;;4.03;2.28;;;;;;;3.45;100.00;92490.28;4756538;30;20066;-73
2024/03/07 00:15:05;;;;;;;3.88;2.00;;;;;;;3.42;100.00;92488.16;4757555;30;20138;-73
2024/03/07 00:17:31;;;;;;;4.45;2.17;;;;;;;3.38;100.00;92486.31;4754648;30;20048;-74
2024/03/07 00:19:56;;;;;;;5.28;2.13;;;;;;;3.33;100.00;92484.44;4771600;30;20081;-74
2024/03/07 00:22:23;;;;;;;4.05;2.20;;;;;;;3.30;100.00;92482.34;4755107;30;20101;-74
2024/03/07 00:24:48;;;;;;;2.83;1.73;;;;;;;3.24;100.00;92486.69;4784699;29;20039;-74
2024/03/07 00:27:14;;;;;;;4.07;1.85;;;;;;;3.23;100.00;92481.75;4773959;30;20053;-74
2024/03/07 00:29:42;;;;;;;3.70;2.00;;;;;;;3.19;100.00;92489.19;4757614;30;20059;-74
2024/03/07 00:32:08;;;;;;;4.18;2.03;;;;;;;3.15;100.00;92482.16;4756742;30;20131;-74
2024/03/07 00:34:34;;;;;;;7.72;2.00;;;;;;;3.09;100.00;92476.94;4757785;30;20147;-73
2024/03/07 00:37:00;;;;;;;3.47;2.00;;;;;;;3.08;100.00;92477.94;4759678;30;20044;-74
2024/03/07 00:39:26;;;;;;;3.58;1.90;;;;;;;3.04;100.00;92476.88;4757495;30;20044;-73
2024/03/07 00:41:51;;;;;;;5.45;2.17;;;;;;;3.04;100.00;92487.22;4750006;30;20108;-73
2024/03/07 00:44:17;;;;;;;5.18;2.10;;;;;;;3.04;100.00;92476.88;4754348;29;20491;-74
2024/03/07 00:46:43;;;;;;;4.65;2.45;;;;;;;3.01;100.00;92482.50;4748494;30;20044;-73
2024/03/07 00:49:08;;;;;;;5.47;1.90;;;;;;;3.02;100.00;92478.94;4762034;30;20039;-74
2024/03/07 00:51:34;;;;;;;5.90;1.90;;;;;;;3.06;100.00;92480.00;4770246;30;20109;-74
2024/03/07 00:54:00;;;;;;;4.63;2.15;;;;;;;3.04;100.00;92476.06;4761641;30;20065;-73
2024/03/07 00:56:25;;;;;;;4.53;2.03;;;;;;;3.02;100.00;92478.94;4760226;30;20053;-73
2024/03/07 00:58:51;;;;;;;5.43;2.20;;;;;;;2.99;100.00;92484.56;4761421;30;20134;-73
2024/03/07 01:01:18;;;;;;;5.82;2.00;;;;;;;2.97;100.00;92478.06;4760116;30;20039;-73
2024/03/07 01:03:44;;;;;;;3.45;2.00;;;;;;;2.96;100.00;92473.94;4763892;30;20640;-74
2024/03/07 01:06:10;;;;;;;3.00;1.88;;;;;;;2.97;100.00;92476.25;4762156;30;20040;-73
2024/03/07 01:08:36;;;;;;;4.82;2.08;;;;;;;2.97;100.00;92465.13;4758013;30;20047;-73
2024/03/07 01:11:09;;;;;;;2.80;1.75;;;;;;;2.97;100.00;92460.72;4753832;30;20051;-74
2024/03/07 01:13:41;;;;;;;;;;;;;;;3.11;100.00;92461.97;4752382;30;20055;-73
2024/03/07 01:16:07;;;;;;;5.10;2.28;;;;;;;3.11;100.00;92461.97;4765096;30;19925;-73
2024/03/07 01:18:35;;;;;;;3.25;1.90;;;;;;;3.14;100.00;92468.47;4755831;30;20121;-73
2024/03/07 01:21:01;;;;;;;4.45;2.30;;;;;;;3.14;100.00;92473.63;4768863;30;20075;-73
2024/03/07 01:23:28;;;;;;;6.75;1.95;;;;;;;3.09;100.00;92466.59;4770194;30;20032;-74
2024/03/07 01:25:56;;;;;;;3.08;1.85;;;;;;;3.05;100.00;92472.50;4763164;30;20040;-73
2024/03/07 01:28:22;;;;;;;3.20;1.40;;;;;;;2.99;100.00;92463.88;4766475;29;20172;-74
2024/03/07 01:30:49;;;;;;;2.38;1.40;;;;;;;2.93;100.00;92464.84;4753127;30;20127;-73
2024/03/07 01:33:14;;;;;;;1.92;1.20;;;;;;;2.87;100.00;92466.56;4770964;30;20035;-73
2024/03/07 01:35:40;;;;;;;2.08;1.30;;;;;;;2.83;100.00;92462.13;4777109;30;20046;-74
2024/03/07 01:38:06;;;;;;;1.48;1.10;;;;;;;2.79;100.00;92461.81;4760348;29;20048;-74
2024/03/07 01:40:32;;;;;;;1.10;0.90;;;;;;;2.79;100.00;92458.44;4760015;30;20375;-74
2024/03/07 01:42:57;;;;;;;1.10;1.00;;;;;;;2.80;100.00;92460.03;4757964;30;20038;-74
2024/03/07 01:45:23;;;;;;;1.55;0.95;;;;;;;2.80;100.00;92457.44;4760367;30;20051;-73
2024/03/07 01:47:48;;;;;;;1.83;0.90;;;;;;;2.78;100.00;92456.88;4752654;30;20044;-74
2024/03/07 01:50:15;;;;;;;1.10;0.98;;;;;;;2.73;100.00;92454.25;4758843;30;20054;-73
2024/03/07 01:52:41;;;;;;;0.80;0.80;;;;;;;2.68;100.00;92460.91;4757820;30;20502;-73
2024/03/07 01:55:10;;;;;;;0.77;0.60;;;;;;;2.66;100.00;92462.94;4762036;30;20109;-74
2024/03/07 01:57:36;;;;;;;2.10;1.02;;;;;;;2.66;100.00;92460.34;4751811;30;20063;-74
2024/03/07 02:00:06;;;;;;;1.67;1.20;;;;;;;2.73;100.00;92464.59;4764417;30;20074;-74
2024/03/07 02:02:33;;;;;;;0.77;0.77;;;;;;;2.70;100.00;92458.88;4759826;30;20423;-74
2024/03/07 02:04:59;;;;;;;0.90;0.90;;;;;;;2.65;100.00;92463.94;4767635;30;20043;-73
2024/03/07 02:07:26;;;;;;;1.60;1.00;;;;;;;2.67;100.00;92458.53;4769521;30;20118;-73
2024/03/07 02:10:00;;;;;;;3.85;1.40;;;;;;;2.65;100.00;92451.03;4760600;30;20553;-73
2024/03/07 02:12:25;;;;;;;3.58;1.80;;;;;;;2.68;100.00;92453.16;4761709;30;20047;-74
2024/03/07 02:14:51;;;;;;;3.65;1.70;;;;;;;2.77;100.00;92455.31;4754826;30;20039;-73
2024/03/07 02:17:18;;;;;;;2.33;1.45;;;;;;;2.85;100.00;92447.16;4762471;29;20150;-73
2024/03/07 02:19:43;;;;;;;1.65;0.85;;;;;;;2.78;100.00;92451.72;4758783;30;20071;-74
2024/03/07 02:22:09;;;;;;;0.90;0.85;;;;;;;2.67;100.00;92450.78;4753551;30;20517;-73
2024/03/07 02:24:35;;;;;;;1.05;0.95;;;;;;;2.58;100.00;92447.06;4763915;30;20123;-73
2024/03/07 02:27:00;;;;;;;1.25;1.00;;;;;;;2.54;100.00;92445.97;4760518;30;20409;-73
2024/03/07 02:29:26;;;;;;;1.45;1.10;;;;;;;2.56;100.00;92449.88;4766876;29;20192;-73
2024/03/07 02:31:51;;;;;;;2.00;1.20;;;;;;;2.57;100.00;92448.06;4759528;30;20501;-73
2024/03/07 02:53:00;;;;;;;0.70;0.70;;;;;;;1.94;100.00;92442.25;4724694;30;19988;-78
2024/03/07 02:55:26;;;;;;;2.47;0.80;;;;;;;1.93;100.00;92451.00;4755762;30;20033;-78
2024/03/07 02:57:52;;;;;;;0.85;0.85;;;;;;;1.87;100.00;92450.13;4755361;30;20036;-78
2024/03/07 03:00:26;;;;;;;1.05;0.95;;;;;;;1.82;100.00;92445.69;4758395;30;20056;-78
2024/03/07 03:02:52;;;;;;;0.85;0.85;;;;;;;1.77;100.00;92442.22;4749691;30;20069;-78
2024/03/07 03:05:18;;;;;;;1.05;0.95;;;;;;;1.76;100.00;92448.41;4760307;30;20035;-78
2024/03/07 03:07:52;;;;;;;1.67;1.10;;;;;;;1.71;100.00;92445.72;4760654;30;20445;-77
2024/03/07 03:10:31;;;;;;;2.28;1.58;;;;;;;1.69;100.00;92445.97;4750462;30;20583;-78
2024/03/07 03:13:00;;;;;;;2.28;1.45;;;;;;;1.61;100.00;92433.44;4757838;30;20522;-78
2024/03/07 03:15:26;;;;;;;2.67;1.30;;;;;;;1.67;100.00;92442.84;4748559;30;20055;-77
2024/03/07 03:17:52;;;;;;;4.20;1.60;;;;;;;1.66;100.00;92436.09;4754911;30;20039;-76
2024/03/07 03:23:13;;;;;;;2.67;1.58;;;;;;;1.63;100.00;92436.56;4759783;30;20059;-76
2024/03/07 03:25:39;;;;;;;4.13;1.80;;;;;;;1.61;100.00;92433.44;4754551;30;20496;-77
2024/03/07 03:28:06;;;;;;;2.78;1.60;;;;;;;1.60;100.00;92434.44;4758099;30;20043;-77
2024/03/07 03:30:32;;;;;;;1.92;1.30;;;;;;;1.60;100.00;92431.84;4760468;30;20420;-78
2024/03/07 03:32:59;;;;;;;2.50;1.50;;;;;;;1.61;100.00;92426.47;4757872;30;20047;-78
2024/03/07 03:35:24;;;;;;;1.48;1.17;;;;;;;1.61;100.00;92428.28;4764355;30;20441;-78
2024/03/07 03:37:50;;;;;;;2.30;1.30;;;;;;;1.61;100.00;92434.22;4760807;30;20032;-78
2024/03/07 03:40:16;;;;;;;2.65;1.50;;;;;;;1.57;100.00;92434.91;4756708;30;20118;-78
2024/03/07 03:42:43;;;;;;;2.65;1.40;;;;;;;1.55;100.00;92424.81;4754116;30;20040;-78
2024/03/07 03:45:14;;;;;;;2.13;1.40;;;;;;;1.58;100.00;92429.53;4754323;30;20051;-77
2024/03/07 03:47:41;;;;;;;2.00;1.40;;;;;;;1.59;100.00;92435.47;4756762;30;20048;-78
2024/03/07 03:50:08;;;;;;;1.52;1.20;;;;;;;1.60;100.00;92431.84;4754391;30;20059;-78
2024/03/07 03:52:37;;;;;;;1.65;1.20;;;;;;;1.64;100.00;92432.97;4761027;30;20058;-78
2024/03/07 03:55:05;;;;;;;1.50;1.20;;;;;;;1.65;100.00;92434.53;4746682;30;20047;-78
2024/03/07 03:57:33;;;;;;;2.95;1.00;;;;;;;1.66;100.00;92430.94;4753809;30;20478;-78
2024/03/07 03:59:58;;;;;;;1.50;1.10;;;;;;;1.65;100.00;92431.97;4756273;30;20489;-78
2024/03/07 04:02:25;;;;;;;1.67;1.20;;;;;;;1.63;100.00;92432.19;4751155;30;20065;-78
2024/03/07 04:04:53;;;;;;;2.03;1.20;;;;;;;1.60;100.00;92431.84;4759705;30;20043;-78
2024/03/07 04:07:19;;;;;;;2.35;0.90;;;;;;;1.57;100.00;92422.00;4761139;30;20040;-75
2024/03/07 04:09:46;;;;;;;1.45;1.00;;;;;;;1.54;100.00;92425.06;4745132;30;20394;-78
2024/03/07 04:12:12;;;;;;;1.63;0.98;;;;;;;1.53;100.00;92436.38;4756700;30;20062;-78
2024/03/07 04:14:42;;;;;;;6.25;1.10;;;;;;;1.50;100.00;92432.47;4767058;30;20047;-78
2024/03/07 04:17:09;;;;;;;2.33;1.23;;;;;;;1.49;100.00;92430.09;4763032;30;20094;-78
2024/03/07 04:19:40;;;;;;;1.65;1.20;;;;;;;1.44;100.00;92431.59;4758889;30;20091;-78
2024/03/07 04:22:08;;;;;;;2.37;1.17;;;;;;;1.47;100.00;92427.78;4765559;30;20051;-78
2024/03/07 04:24:36;;;;;;;1.10;1.00;;;;;;;1.47;100.00;92438.09;4754133;30;20289;-78
2024/03/07 04:27:03;;;;;;;2.47;1.33;;;;;;;1.47;100.00;92432.16;4760872;30;20165;-78
2024/03/07 04:29:35;;;;;;;4.65;1.30;;;;;;;1.47;100.00;92430.34;4759938;30;20036;-77
2024/03/07 04:32:06;;;;;;;2.88;1.40;;;;;;;1.47;100.00;92427.78;4765697;30;20044;-77
2024/03/07 04:34:32;;;;;;;2.58;1.50;;;;;;;1.48;100.00;92431.13;4755610;30;20040;-78
2024/03/07 04:37:01;;;;;;;2.33;1.40;;;;;;;1.47;100.00;92432.16;4762177;30;20051;-78
2024/03/07 04:39:33;;;;;;;2.15;1.23;;;;;;;1.46;100.00;92431.34;4757418;30;20623;-76
2024/03/07 04:42:02;;;;;;;3.85;1.33;;;;;;;1.42;100.00;92425.91;4760390;30;20071;-76
2024/03/07 04:44:31;;;;;;;3.10;1.50;;;;;;;1.41;100.00;92426.91;4751358;30;20079;-77
2024/03/07 04:46:57;;;;;;;2.45;1.60;;;;;;;1.39;100.00;92425.56;4754914;30;20040;-76
2024/03/07 04:49:27;;;;;;;2.47;1.60;;;;;;;1.37;100.00;92430.94;4757798;30;20036;-77
2024/03/07 04:51:54;;;;;;;2.45;1.40;;;;;;;1.28;100.00;92416.84;4751864;30;20070;-78
2024/03/07 04:54:21;;;;;;;2.47;1.30;;;;;;;1.34;100.00;92426.25;4759085;30;20155;-78
2024/03/07 04:56:47;;;;;;;4.78;1.40;;;;;;;1.35;100.00;92425.25;4760923;30;20423;-75
2024/03/07 04:59:13;;;;;;;2.40;1.30;;;;;;;1.32;100.00;92423.13;4751856;30;20071;-78
2024/03/07 05:01:40;;;;;;;1.98;1.40;;;;;;;1.31;100.00;92425.94;4755472;30;20036;-78
2024/03/07 05:04:06;;;;;;;3.60;1.50;;;;;;;1.31;100.00;92419.00;4753081;30;20048;-78
2024/03/07 05:06:35;;;;;;;2.30;1.40;;;;;;;1.31;100.00;92423.38;4741511;30;20046;-78
2024/03/07 05:09:04;;;;;;;2.63;1.55;;;;;;;1.29;100.00;92421.00;4751009;30;20058;-78
2024/03/07 05:11:30;;;;;;;2.83;1.60;;;;;;;1.28;100.00;92427.16;4764369;30;20043;-78
2024/03/07 05:13:57;;;;;;;2.97;1.40;;;;;;;1.24;100.00;92418.34;4752556;30;20032;-78
2024/03/07 05:16:29;;;;;;;1.98;1.40;;;;;;;1.27;100.00;92422.25;4760305;30;20044;-78
2024/03/07 05:18:59;;;;;;;1.77;1.45;;;;;;;1.25;100.00;92427.63;4759742;30;20426;-78
2024/03/07 05:24:02;;;;;;;2.05;1.30;;;;;;;1.22;100.00;92425.53;4764019;30;20048;-78
2024/03/07 05:26:28;;;;;;;2.17;1.33;;;;;;;1.20;100.00;92422.41;4757110;30;20024;-78
2024/03/07 05:28:56;;;;;;;2.63;1.40;;;;;;;1.21;100.00;92418.78;4756754;30;20104;-77
2024/03/07 05:31:22;;;;;;;3.38;1.20;;;;;;;1.21;100.00;92418.78;4749634;30;20520;-77
2024/03/07 05:33:48;;;;;;;1.70;1.15;;;;;;;1.21;100.00;92423.94;4747706;30;20051;-77
2024/03/07 05:36:14;;;;;;;1.15;1.05;;;;;;;1.20;100.00;92427.56;4755315;30;20373;-77
2024/03/07 05:38:43;;;;;;;2.17;1.00;;;;;;;1.17;100.00;92420.25;4757837;30;20043;-77
2024/03/07 05:41:13;;;;;;;1.42;1.13;;;;;;;1.16;100.00;92421.28;4765369;30;20040;-79
2024/03/07 05:43:39;;;;;;;1.33;1.10;;;;;;;1.16;100.00;92421.28;4756956;30;20085;-79
2024/03/07 05:46:06;;;;;;;3.15;1.40;;;;;;;1.17;100.00;92420.25;4755689;30;20686;-80
2024/03/07 05:48:35;;;;;;;2.97;1.10;;;;;;;1.20;100.00;92414.66;4766160;30;20092;-80
2024/03/07 05:51:07;;;;;;;2.63;1.20;;;;;;;1.22;100.00;92420.38;4762969;30;20045;-81
2024/03/07 05:53:32;;;;;;;1.30;1.10;;;;;;;1.25;100.00;92423.25;4753719;30;20205;-79
2024/03/07 05:55:58;;;;;;;2.53;1.40;;;;;;;1.26;100.00;92426.63;4752547;30;20123;-78
2024/03/07 05:58:23;;;;;;;2.15;1.33;;;;;;;1.27;100.00;92423.03;4761034;30;20135;-79
2024/03/07 06:01:12;;;;;;;1.98;1.30;;;;;;;1.26;100.00;92429.19;4756530;30;20519;-79
2024/03/07 06:03:39;;;;;;;2.58;1.45;;;;;;;1.20;100.00;92415.44;4751670;30;20491;-80
2024/03/07 06:06:07;;;;;;;2.10;1.35;;;;;;;1.29;100.00;92426.16;4757584;30;20043;-84
2024/03/07 06:08:33;;;;;;;2.13;1.20;;;;;;;1.21;100.00;92409.25;4760721;30;20100;-80
2024/03/07 06:11:05;;;;;;;1.88;1.20;;;;;;;1.50;100.00;92427.31;4771142;30;20118;-80
2024/03/07 06:13:31;;;;;;;1.75;1.20;;;;;;;1.92;100.00;92433.94;4771940;30;20048;-80
2024/03/07 06:15:56;;;;;;;2.28;1.42;;;;;;;2.40;100.00;92435.94;4769648;30;20035;-84
2024/03/07 06:18:22;;;;;;;2.53;1.40;;;;;;;2.88;100.00;92431.16;4759948;30;20060;-81
2024/03/07 06:20:48;;;;;;;2.72;1.60;;;;;;;3.34;100.00;92432.47;4754970;30;20032;-82
2024/03/07 06:23:16;;;;;;;3.60;1.30;;;;;;;3.65;100.00;92435.38;4758024;30;20093;-85
2024/03/07 06:25:50;;;;;;;2.30;1.40;;;;;;;3.92;100.00;92435.34;4758012;30;20562;-84
2024/03/07 06:28:16;;;;;;;1.40;1.10;;;;;;;4.57;100.00;92441.28;4755056;30;20071;-82
2024/03/07 06:30:44;;;;;;;2.03;1.50;;;;;;;5.17;100.00;92439.25;4738354;30;20110;-79
2024/03/07 06:33:10;;;;;;;2.90;1.40;;;;;;;5.62;100.00;92421.47;4758646;30;20044;-79
2024/03/07 06:35:36;;;;;;;2.72;1.63;;;;;;;6.18;95.42;92431.94;4756007;30;20344;-80
2024/03/07 06:38:06;;;;;;;2.20;1.33;;;;;;;6.87;94.62;92433.19;4766639;30;20039;-79
2024/03/07 06:40:32;;;;;;;4.05;1.33;;;;;;;7.19;89.55;92429.44;4760399;30;20089;-83
2024/03/07 06:42:59;;;;;;;2.10;1.40;;;;;;;7.63;86.34;92438.38;4751154;30;20048;-81
2024/03/07 06:45:26;;;;;;;2.17;1.38;;;;;;;8.11;82.94;92438.63;4761175;30;20104;-81
2024/03/07 06:47:55;;;;;;;2.97;1.48;;;;;;;8.71;77.18;92446.25;4767368;30;20055;-80
2024/03/07 06:50:21;;;;;;;1.77;1.30;;;;;;;9.46;73.86;92442.34;4759477;30;20489;-80
2024/03/07 06:52:47;;;;;;;2.50;1.42;;;;;;;9.89;70.76;92426.66;4766579;30;20083;-81
2024/03/07 06:55:17;;;;;;;2.67;1.40;;;;;;;10.82;67.68;92432.03;4761712;30;20048;-81
2024/03/07 06:57:46;;;;;;;2.67;1.45;;;;;;;10.93;62.37;92433.41;4749908;30;20048;-81
2024/03/07 07:00:21;;;;;;;2.10;1.27;;;;;;;11.34;59.71;92435.28;4753380;30;20032;-81
2024/03/07 07:02:48;;;;;;;1.77;1.20;;;;;;;11.75;58.23;92437.09;4761891;30;20409;-80
2024/03/07 07:05:18;;;;;;;2.10;1.40;;;;;;;12.42;51.43;92433.06;4758725;30;20059;-82
2024/03/07 07:07:44;;;;;;;2.47;1.40;;;;;;;12.88;50.81;92435.38;4762754;30;20052;-83
2024/03/07 07:10:23;;;;;;;1.60;1.15;;;;;;;13.43;50.41;92434.25;4750784;30;20115;-82
2024/03/07 07:12:50;;;;;;;4.22;1.10;;;;;;;14.02;46.30;92433.91;4755139;30;20416;-84
2024/03/07 07:15:18;;;;;;;2.22;1.30;;;;;;;13.78;46.02;92439.59;4760411;30;20048;-82
2024/03/07 07:17:48;;;;;;;1.48;1.00;;;;;;;14.61;42.59;92435.34;4757715;30;20055;-82
2024/03/07 07:20:15;;;;;;;2.25;1.30;;;;;;;14.21;43.16;92430.19;4753568;30;20421;-82
2024/03/07 07:22:47;;;;;;;1.85;1.13;;;;;;;13.91;41.92;92437.91;4758707;30;20036;-80
2024/03/07 07:25:14;;;;;;;2.72;1.40;;;;;;;14.52;42.35;92436.09;4760533;30;20055;-81
2024/03/07 07:27:49;;;;;;;2.42;1.77;;;;;;;14.14;43.02;92438.59;4754737;30;20056;-81
2024/03/07 07:30:17;;;;;;;1.73;1.15;;;;;;;14.66;40.70;92443.06;4760097;30;20087;-81
2024/03/07 07:32:43;;;;;;;2.10;1.23;;;;;;;14.78;41.72;92430.03;4751760;30;20032;-81
2024/03/07 07:35:13;;;;;;;2.47;1.20;;;;;;;14.56;41.62;92431.00;4751451;30;20412;-80
2024/03/07 07:37:39;;;;;;;2.20;1.20;;;;;;;15.06;41.22;92435.72;4768933;30;20508;-80
2024/03/07 07:40:18;;;;;;;2.08;1.20;;;;;;;15.80;38.62;92437.13;4753754;30;20070;-80
2024/03/07 07:42:46;;;;;;;2.90;1.20;;;;;;;15.02;41.02;92432.19;4760890;30;20532;-81
2024/03/07 07:45:13;;;;;;;2.55;1.50;;;;;;;14.04;41.61;92441.50;4761795;30;20028;-80
2024/03/07 07:47:43;;;;;;;2.58;1.58;;;;;;;12.93;45.10;92431.06;4763055;30;20040;-81
2024/03/07 07:50:13;;;;;;;2.33;1.30;;;;;;;12.66;49.05;92433.53;4752280;30;20032;-81
2024/03/07 07:52:53;;;;;;;3.38;1.33;;;;;;;12.23;50.66;92434.00;4755753;30;20052;-81
2024/03/07 07:55:20;;;;;;;2.95;1.50;;;;;;;11.97;50.39;92427.75;4758627;30;20098;-81
2024/03/07 07:58:07;;;;;;;2.45;1.45;;;;;;;11.20;51.33;92431.91;4754780;30;20038;-82
2024/03/07 08:00:34;;;;;;;2.33;1.30;;;;;;;11.46;54.03;92435.59;4761387;30;20528;-79
2024/03/07 08:03:06;;;;;;;3.20;1.40;;;;;;;11.11;56.63;92433.63;4750191;30;20032;-81
2024/03/07 08:05:34;;;;;;;2.30;1.50;;;;;;;10.41;56.07;92436.09;4755118;30;20453;-82
2024/03/07 08:08:11;;;;;;;2.45;1.30;;;;;;;10.27;56.92;92442.31;4758300;30;20079;-80
2024/03/07 08:10:37;;;;;;;2.80;1.30;;;;;;;10.61;61.03;92427.16;4757427;30;20100;-82
2024/03/07 08:13:06;;;;;;;2.40;1.40;;;;;;;11.06;55.87;92431.13;4760452;30;20071;-80
2024/03/07 08:15:31;;;;;;;3.05;1.52;;;;;;;11.36;54.67;92435.00;4755218;30;20078;-81
2024/03/07 08:17:59;;;;;;;4.05;2.00;;;;;;;10.92;57.99;92426.63;4768681;30;20027;-80
2024/03/07 08:20:25;;;;;;;3.33;1.50;;;;;;;10.58;55.81;92435.59;4762125;30;20055;-82
2024/03/07 08:22:52;;;;;;;5.05;1.48;;;;;;;10.28;53.98;92433.41;4757584;30;20571;-80
2024/03/07 08:25:25;;;;;;;3.10;1.65;;;;;;;10.13;57.86;92437.81;4754672;30;20047;-82
2024/03/07 08:27:57;;;;;;;2.65;1.60;;;;;;;10.14;60.06;92423.66;4752049;30;20385;-81
2024/03/07 08:30:24;;;;;;;3.13;1.60;;;;;;;10.04;56.76;92436.88;4760069;30;20377;-81
2024/03/07 08:32:52;;;;;;;2.25;1.30;;;;;;;9.91;54.78;92432.38;4762566;30;20104;-80
2024/03/07 08:35:18;;;;;;;3.72;1.60;;;;;;;10.00;59.99;92428.84;4768258;30;20044;-80
2024/03/07 08:37:46;;;;;;;2.70;1.55;;;;;;;10.05;61.24;92427.97;4764662;30;20043;-80
2024/03/07 08:40:21;;;;;;;2.80;1.33;;;;;;;10.14;58.24;92436.75;4750895;30;20102;-80
2024/03/07 08:42:50;;;;;;;5.10;1.50;;;;;;;10.14;59.25;92435.97;4754267;30;20428;-80
2024/03/07 08:45:19;;;;;;;2.60;1.50;;;;;;;10.09;60.48;92438.66;4752172;30;20511;-80
2024/03/07 08:47:49;;;;;;;2.75;1.50;;;;;;;10.29;64.76;92425.31;4765139;30;20345;-81
2024/03/07 08:50:17;;;;;;;3.35;1.42;;;;;;;10.35;61.32;92431.22;4753586;30;20063;-81
2024/03/07 08:52:44;;;;;;;3.03;1.60;;;;;;;10.33;59.74;92430.72;4754976;30;20059;-80
2024/03/07 08:55:14;;;;;;;2.75;1.63;;;;;;;9.88;62.06;92436.31;4769695;30;20036;-79
2024/03/07 08:57:40;;;;;;;2.58;1.50;;;;;;;9.71;63.05;92434.19;4758912;30;20040;-79
2024/03/07 09:00:11;;;;;;;3.92;1.30;;;;;;;9.90;64.26;92428.19;4750466;30;20101;-78
2024/03/07 09:02:42;;;;;;;3.15;1.65;;;;;;;10.06;61.06;92437.38;4750638;30;20091;-79
2024/03/07 09:05:09;;;;;;;2.30;1.50;;;;;;;9.70;59.78;92431.84;4750489;30;20075;-78
2024/03/07 09:07:35;;;;;;;1.70;1.30;;;;;;;10.20;60.78;92432.22;4750625;30;20047;-78
2024/03/07 09:10:01;;;;;;;3.20;1.30;;;;;;;10.15;62.25;92424.44;4749962;30;20047;-80
2024/03/07 09:12:27;;;;;;;4.82;1.70;;;;;;;9.87;60.27;92436.59;4755882;30;20040;-79
2024/03/07 09:14:53;;;;;;;2.30;1.30;;;;;;;9.32;61.44;92437.81;4760994;30;20520;-80
2024/03/07 09:17:20;;;;;;;1.48;1.23;;;;;;;9.54;63.67;92439.09;4753535;30;20032;-79
2024/03/07 09:19:46;;;;;;;2.08;1.38;;;;;;;9.67;59.23;92441.03;4767392;30;20418;-80
2024/03/07 09:22:11;;;;;;;2.88;1.40;;;;;;;9.95;59.15;92435.97;4764367;30;20039;-80
2024/03/07 09:24:37;;;;;;;1.85;1.30;;;;;;;10.59;58.09;92428.50;4751937;30;20048;-80
2024/03/07 09:27:03;;;;;;;2.92;1.60;;;;;;;10.76;51.92;92441.84;4750060;30;20603;-79
2024/03/07 09:29:29;;;;;;;2.35;1.30;;;;;;;10.92;52.31;92431.88;4759071;30;20043;-80
2024/03/07 09:31:54;;;;;;;2.33;1.33;;;;;;;10.86;54.45;92438.25;4758574;30;20081;-80
2024/03/07 09:34:21;;;;;;;4.22;1.50;;;;;;;10.99;53.34;92442.75;4749602;30;20628;-79
2024/03/07 09:36:48;;;;;;;4.13;1.60;;;;;;;11.00;62.89;92439.03;4748858;30;20100;-80
2024/03/07 09:39:15;;;;;;;1.65;1.25;;;;;;;10.91;64.75;92440.00;4749473;30;20447;-79
2024/03/07 09:41:41;;;;;;;2.28;1.50;;;;;;;11.19;65.48;92431.13;4747913;30;20032;-80
2024/03/07 09:44:11;;;;;;;2.40;1.42;;;;;;;11.33;61.70;92435.59;4750695;30;20428;-80
2024/03/07 09:46:38;;;;;;;2.53;1.38;;;;;;;11.21;57.75;92434.22;4766540;30;20083;-80
2024/03/07 09:49:05;;;;;;;2.50;1.35;;;;;;;11.20;55.20;92434.50;4757744;30;20063;-81
2024/03/07 09:51:33;;;;;;;1.27;1.10;;;;;;;11.00;54.10;92441.66;4754546;30;20072;-79
2024/03/07 09:54:01;;;;;;;1.83;1.30;;;;;;;10.93;53.65;92446.50;4759843;30;20433;-80
2024/03/07 09:56:31;;;;;;;1.67;1.10;;;;;;;10.79;55.99;92448.34;4759539;30;20040;-80
2024/03/07 09:59:01;;;;;;;1.38;0.80;;;;;;;10.67;56.54;92450.63;4751108;30;20044;-79
2024/03/07 10:01:27;;;;;;;1.48;1.00;;;;;;;10.70;57.69;92450.84;4748781;30;20504;-79
2024/03/07 10:04:01;;;;;;;1.80;1.20;;;;;;;10.61;58.45;92448.09;4763864;30;20042;-79
2024/03/07 10:06:29;;;;;;;1.42;1.20;;;;;;;10.24;55.15;92455.97;4757804;30;20032;-79
2024/03/07 10:08:55;;;;;;;2.17;1.10;;;;;;;9.81;57.46;92456.78;4767135;30;20047;-80
2024/03/07 10:11:21;;;;;;;4.35;1.20;;;;;;;10.11;60.29;92450.41;4754715;30;20594;-80
2024/03/07 10:13:49;;;;;;;5.70;1.52;;;;;;;10.28;62.25;92449.88;4755867;30;20048;-79
2024/03/07 10:16:16;;;;;;;2.05;1.10;;;;;;;10.59;55.76;92444.22;4765553;30;20034;-79
2024/03/07 10:18:42;;;;;;;2.00;1.30;;;;;;;10.56;60.03;92444.75;4755472;30;20131;-80
2024/03/07 10:21:08;;;;;;;3.67;1.30;;;;;;;10.58;56.49;92446.06;4748534;30;20448;-79
2024/03/07 10:23:34;;;;;;;2.33;1.20;;;;;;;10.71;53.27;92451.59;4755971;30;20033;-78
2024/03/07 10:26:00;;;;;;;4.15;1.58;;;;;;;10.55;54.91;92448.47;4762414;30;20038;-78
2024/03/07 10:28:28;;;;;;;1.45;1.20;;;;;;;10.93;52.98;92450.97;4749203;30;20055;-79
2024/03/07 10:30:53;;;;;;;1.17;1.05;;;;;;;11.18;54.85;92449.75;4752384;30;20048;-80
2024/03/07 10:33:19;;;;;;;2.30;1.20;;;;;;;10.83;51.64;92438.84;4764391;30;20047;-78
2024/03/07 10:35:49;;;;;;;1.80;1.20;;;;;;;10.94;54.30;92445.47;4757821;30;20070;-79
2024/03/07 10:38:15;;;;;;;2.05;1.20;;;;;;;11.16;54.07;92446.63;4750263;30;20336;-79
2024/03/07 10:40:41;;;;;;;2.38;1.40;;;;;;;11.04;49.86;92455.75;4751628;30;20465;-78
2024/03/07 10:43:11;;;;;;;1.73;1.25;;;;;;;10.97;54.93;92444.88;4751350;30;20388;-81
2024/03/07 10:45:45;;;;;;;2.03;1.33;;;;;;;10.97;55.95;92451.97;4764894;30;20404;-80
2024/03/07 10:48:12;;;;;;;2.72;1.20;;;;;;;10.98;53.96;92445.66;4766422;30;20044;-79
2024/03/07 10:50:39;;;;;;;1.33;1.10;;;;;;;10.99;53.41;92453.22;4744632;30;20059;-79
2024/03/07 10:53:31;;;;;;;1.80;1.23;;;;;;;10.83;56.46;92449.31;4755575;30;20395;-81
2024/03/07 10:56:48;;;;;;;2.72;1.30;;;;;;;10.71;52.64;92462.06;4758730;30;20192;-79
2024/03/07 10:59:18;;;;;;;2.17;1.30;;;;;;;11.02;54.25;92460.50;4768283;30;20040;-80
2024/03/07 11:01:59;;;;;;;3.03;1.30;;;;;;;10.72;54.35;92453.19;4756974;30;20048;-80
2024/03/07 11:04:25;;;;;;;2.53;1.38;;;;;;;11.00;53.94;92452.13;4757912;30;20540;-81
2024/03/07 11:06:53;;;;;;;1.85;1.30;;;;;;;11.24;54.34;92456.47;4766512;30;20109;-82
2024/03/07 11:09:23;;;;;;;1.38;1.00;;;;;;;11.50;54.10;92445.47;4760067;30;20470;-81
2024/03/07 11:11:49;;;;;;;1.55;1.15;;;;;;;11.57;55.02;92445.84;4770556;30;20119;-80
2024/03/07 11:14:17;;;;;;;3.33;1.25;;;;;;;11.09;54.35;92451.47;4763159;30;20157;-80
2024/03/07 11:16:44;;;;;;;4.35;1.50;;;;;;;11.08;52.80;92450.72;4763525;30;20044;-80
2024/03/07 11:19:21;;;;;;;2.85;1.40;;;;;;;10.99;56.16;92441.97;4752724;30;20068;-81
2024/03/07 11:21:47;;;;;;;2.40;1.20;;;;;;;11.08;53.28;92444.69;4757008;30;20058;-78
2024/03/07 11:24:30;;;;;;;4.63;1.50;;;;;;;11.52;55.06;92436.25;4760945;30;20047;-81
2024/03/07 11:26:57;;;;;;;1.95;1.27;;;;;;;11.42;52.49;92429.38;4756050;30;20055;-81
2024/03/07 11:29:46;;;;;;;2.47;1.33;;;;;;;11.25;56.50;92434.41;4734413;30;20070;-81
2024/03/07 11:32:15;;;;;;;1.98;1.33;;;;;;;11.31;60.02;92427.25;4766153;30;20044;-81
2024/03/07 11:34:42;;;;;;;1.58;1.17;;;;;;;11.24;55.14;92436.25;4766035;30;20028;-82
2024/03/07 11:37:22;;;;;;;2.60;1.42;;;;;;;11.06;56.83;92429.28;4751510;30;20540;-80
2024/03/07 11:39:51;;;;;;;3.00;2.08;;;;;;;10.93;58.73;92438.66;4750327;30;20043;-81
2024/03/07 11:42:26;;;;;;;2.75;1.50;;;;;;;11.02;59.66;92436.16;4755025;30;20093;-81
2024/03/07 11:44:55;;;;;;;3.20;1.60;;;;;;;11.27;63.20;92416.56;4752301;30;20040;-80
2024/03/07 11:47:24;;;;;;;2.42;1.40;;;;;;;11.20;60.84;92408.31;4759383;30;20066;-78
2024/03/07 11:49:52;;;;;;;4.55;1.40;;;;;;;11.19;60.53;92402.31;4759669;30;20047;-81
2024/03/07 11:52:18;;;;;;;1.70;1.25;;;;;;;11.45;63.33;92412.28;4757804;30;20060;-83
2024/03/07 11:54:48;;;;;;;2.15;1.25;;;;;;;11.39;61.21;92409.00;4763496;30;20190;-80
2024/03/07 11:57:19;;;;;;;3.55;1.70;;;;;;;11.39;64.63;92403.75;4755339;30;20054;-83
2024/03/07 11:59:51;;;;;;;2.80;1.70;;;;;;;11.56;63.71;92402.38;4759496;30;20564;-81
2024/03/07 12:02:21;;;;;;;3.30;1.60;;;;;;;11.21;62.77;92405.41;4761900;30;20101;-81